createdAt,value
2017-10-26T00:01:18.698Z,5.50
2017-10-26T00:03:46.538Z,4.60
2017-10-26T00:06:14.196Z,5.63
2017-10-26T00:08:41.625Z,5.90
2017-10-26T00:11:09.065Z,5.13
2017-10-26T00:13:36.534Z,5.90
2017-10-26T00:16:03.985Z,5.10
2017-10-26T00:18:31.434Z,6.27
2017-10-26T00:20:58.879Z,5.17
2017-10-26T00:23:26.310Z,4.90
2017-10-26T00:25:54.428Z,6.70
2017-10-26T00:28:21.864Z,5.50
2017-10-26T00:30:49.310Z,5.87
2017-10-26T00:33:16.769Z,6.10
2017-10-26T00:35:44.213Z,6.27
2017-10-26T00:38:11.641Z,7.77
2017-10-26T00:40:39.549Z,5.87
2017-10-26T00:43:07.004Z,5.70
2017-10-26T00:45:34.429Z,6.30
2017-10-26T00:48:02.252Z,7.20
2017-10-26T00:50:29.696Z,6.37
2017-10-26T00:52:57.446Z,6.10
2017-10-26T00:55:24.881Z,7.20
2017-10-26T00:57:52.305Z,6.30
2017-10-26T01:00:20.142Z,6.30
2017-10-26T01:02:47.613Z,6.43
2017-10-26T01:05:15.066Z,5.40
2017-10-26T01:07:42.489Z,5.83
2017-10-26T01:10:09.961Z,8.00
2017-10-26T01:12:37.394Z,6.40
2017-10-26T01:15:05.517Z,6.00
2017-10-26T01:17:33.008Z,5.80
2017-10-26T01:20:00.473Z,6.87
2017-10-26T01:22:27.905Z,7.20
2017-10-26T01:24:55.341Z,5.67
2017-10-26T01:27:23.211Z,7.30
2017-10-26T01:29:51.045Z,7.07
2017-10-26T01:32:18.477Z,6.90
2017-10-26T01:34:45.923Z,6.90
2017-10-26T01:37:13.361Z,7.63
2017-10-26T01:39:40.799Z,8.00
2017-10-26T01:42:08.821Z,7.53
2017-10-26T01:44:36.269Z,7.43
2017-10-26T01:47:03.729Z,7.73
2017-10-26T01:49:31.179Z,8.43
2017-10-26T01:51:58.661Z,7.80
2017-10-26T01:54:26.102Z,8.67
2017-10-26T01:56:53.564Z,8.87
2017-10-26T01:59:21.063Z,7.90
2017-10-26T02:01:48.508Z,9.57
2017-10-26T02:04:16.400Z,8.87
2017-10-26T02:06:43.981Z,8.37
2017-10-26T02:09:11.738Z,9.03
2017-10-26T02:11:39.235Z,9.40
2017-10-26T02:14:07.226Z,9.43
2017-10-26T02:16:35.110Z,9.97
2017-10-26T02:19:02.624Z,8.97
2017-10-26T02:21:30.088Z,9.43
2017-10-26T02:23:57.546Z,9.00
2017-10-26T02:26:25.431Z,10.37
2017-10-26T02:31:52.046Z,9.80
2017-10-26T02:34:19.465Z,9.83
2017-10-26T02:36:46.919Z,8.70
2017-10-26T02:39:14.399Z,9.63
2017-10-26T02:41:49.281Z,9.20
2017-10-26T02:47:06.488Z,9.60
2017-10-26T02:49:34.337Z,9.30
2017-10-26T02:52:01.768Z,9.20
2017-10-26T02:54:29.213Z,8.90
2017-10-26T02:56:56.661Z,9.20
2017-10-26T02:59:24.122Z,9.17
2017-10-26T03:01:51.571Z,9.10
2017-10-26T03:04:19.034Z,10.20
2017-10-26T03:06:46.642Z,11.57
2017-10-26T03:09:14.515Z,8.93
2017-10-26T03:11:47.192Z,9.70
2017-10-26T03:14:17.561Z,8.60
2017-10-26T03:16:45.051Z,10.27
2017-10-26T03:19:12.468Z,9.93
2017-10-26T03:21:39.974Z,10.50
2017-10-26T03:24:07.831Z,10.13
2017-10-26T03:26:35.661Z,9.70
2017-10-26T03:29:03.160Z,10.90
2017-10-26T03:31:31.023Z,10.10
2017-10-26T03:33:58.876Z,9.93
2017-10-26T03:36:26.715Z,10.50
2017-10-26T03:38:54.531Z,10.30
2017-10-26T03:41:22.351Z,9.60
2017-10-26T03:43:49.831Z,11.47
2017-10-26T03:46:17.660Z,9.90
2017-10-26T03:48:45.101Z,10.97
2017-10-26T03:51:12.569Z,10.30
2017-10-26T03:53:40.018Z,9.77
2017-10-26T03:56:07.511Z,10.30
2017-10-26T03:58:35.373Z,11.00
2017-10-26T04:01:03.237Z,11.03
2017-10-26T04:03:33.866Z,9.97
2017-10-26T04:06:01.678Z,10.60
2017-10-26T04:08:29.149Z,10.90
2017-10-26T04:10:56.848Z,10.90
2017-10-26T04:13:24.273Z,9.40
2017-10-26T04:15:51.863Z,10.87
2017-10-26T04:18:19.705Z,10.93
2017-10-26T04:20:47.137Z,12.47
2017-10-26T04:23:14.593Z,11.37
2017-10-26T04:25:42.065Z,10.10
2017-10-26T04:28:09.510Z,10.90
2017-10-26T04:30:37.797Z,10.63
2017-10-26T04:33:05.242Z,11.70
2017-10-26T04:35:32.750Z,9.80
2017-10-26T04:38:00.241Z,10.93
2017-10-26T04:40:27.735Z,11.50
2017-10-26T04:42:55.594Z,9.80
2017-10-26T04:45:23.099Z,11.20
2017-10-26T04:47:50.533Z,10.53
2017-10-26T04:50:17.965Z,10.60
2017-10-26T04:52:46.240Z,10.33
2017-10-26T04:55:13.742Z,11.23
2017-10-26T04:57:43.075Z,11.23
2017-10-26T05:00:10.559Z,11.30
2017-10-26T05:02:41.416Z,11.43
2017-10-26T05:05:09.126Z,10.40
2017-10-26T05:07:45.678Z,10.37
2017-10-26T05:10:13.659Z,10.23
2017-10-26T05:12:41.820Z,10.43
2017-10-26T05:15:09.319Z,11.37
2017-10-26T05:17:37.597Z,10.10
2017-10-26T05:20:05.546Z,11.60
2017-10-26T05:22:33.002Z,10.33
2017-10-26T05:25:00.442Z,11.40
2017-10-26T05:27:27.901Z,10.67
2017-10-26T05:29:55.407Z,10.00
2017-10-26T05:32:22.840Z,10.87
2017-10-26T05:34:51.002Z,10.10
2017-10-26T05:37:18.440Z,10.30
2017-10-26T05:39:45.985Z,12.50
2017-10-26T05:42:14.281Z,10.40
2017-10-26T05:44:41.753Z,9.10
2017-10-26T05:47:09.583Z,10.50
2017-10-26T05:49:37.176Z,9.73
2017-10-26T05:52:05.255Z,11.20
2017-10-26T05:54:32.739Z,11.10
2017-10-26T05:57:00.247Z,9.90
2017-10-26T05:59:27.783Z,9.70
2017-10-26T06:01:55.263Z,11.27
2017-10-26T06:04:22.729Z,10.80
2017-10-26T06:06:51.012Z,9.50
2017-10-26T06:09:19.788Z,10.47
2017-10-26T06:11:47.556Z,10.17
2017-10-26T06:14:15.415Z,10.10
2017-10-26T06:16:43.352Z,10.03
2017-10-26T06:19:12.058Z,11.87
2017-10-26T06:21:39.592Z,10.10
2017-10-26T06:24:07.544Z,10.60
2017-10-26T06:26:35.429Z,10.27
2017-10-26T06:29:02.857Z,10.97
2017-10-26T06:31:30.324Z,11.37
2017-10-26T06:33:57.752Z,11.07
2017-10-26T06:36:25.180Z,10.27
2017-10-26T06:38:53.702Z,10.33
2017-10-26T06:41:21.124Z,10.70
2017-10-26T06:43:48.561Z,12.77
2017-10-26T06:46:16.679Z,10.40
2017-10-26T06:48:44.114Z,9.23
2017-10-26T06:51:11.541Z,11.87
2017-10-26T06:53:39.412Z,11.30
2017-10-26T06:56:07.238Z,11.70
2017-10-26T06:58:34.663Z,11.40
2017-10-26T07:01:02.153Z,11.50
2017-10-26T07:03:29.573Z,13.30
2017-10-26T07:05:57.005Z,12.80
2017-10-26T07:08:24.446Z,11.70
2017-10-26T07:10:52.281Z,11.90
2017-10-26T07:13:19.713Z,12.73
2017-10-26T07:15:47.169Z,13.43
2017-10-26T07:18:14.605Z,13.33
2017-10-26T07:20:42.046Z,11.80
2017-10-26T07:23:09.508Z,13.97
2017-10-26T07:25:36.929Z,12.70
2017-10-26T07:28:04.764Z,12.37
2017-10-26T07:30:32.237Z,12.47
2017-10-26T07:32:59.669Z,13.67
2017-10-26T07:35:27.100Z,13.70
2017-10-26T07:37:54.589Z,14.60
2017-10-26T07:40:22.005Z,14.83
2017-10-26T07:42:49.437Z,14.37
2017-10-26T07:45:16.885Z,15.23
2017-10-26T07:47:44.713Z,15.47
2017-10-26T07:50:12.153Z,14.90
2017-10-26T07:52:39.621Z,14.83
2017-10-26T07:55:07.055Z,15.87
2017-10-26T07:57:34.488Z,16.23
2017-10-26T08:00:02.041Z,15.73
2017-10-26T08:02:29.473Z,16.17
2017-10-26T08:04:57.301Z,16.00
2017-10-26T08:07:24.744Z,18.37
2017-10-26T08:09:52.307Z,16.60
2017-10-26T08:12:19.741Z,18.43
2017-10-26T08:14:47.174Z,18.17
2017-10-26T08:17:14.618Z,17.67
2017-10-26T08:19:42.449Z,18.57
2017-10-26T08:22:10.001Z,19.50
2017-10-26T08:24:37.437Z,19.70
2017-10-26T08:27:04.865Z,19.20
2017-10-26T08:29:32.545Z,21.13
2017-10-26T08:31:59.982Z,23.67
2017-10-26T08:34:27.413Z,22.60
2017-10-26T08:36:55.630Z,22.83
2017-10-26T08:39:23.066Z,23.40
2017-10-26T08:41:50.497Z,23.20
2017-10-26T08:44:18.725Z,27.07
2017-10-26T08:46:46.176Z,25.00
2017-10-26T08:49:13.615Z,25.27
2017-10-26T08:51:41.257Z,27.80
2017-10-26T08:54:08.697Z,25.00
2017-10-26T08:56:36.526Z,24.00
2017-10-26T08:59:03.962Z,26.40
2017-10-26T09:01:31.403Z,25.37
2017-10-26T09:03:58.945Z,27.00
2017-10-26T09:06:26.368Z,27.00
2017-10-26T09:08:54.215Z,28.10
2017-10-26T09:11:21.818Z,27.90
2017-10-26T09:13:49.245Z,26.67
2017-10-26T09:16:17.085Z,27.63
2017-10-26T09:18:44.682Z,24.93
2017-10-26T09:21:12.512Z,25.80
2017-10-26T09:23:39.945Z,25.90
2017-10-26T09:26:07.405Z,25.47
2017-10-26T09:28:34.832Z,26.20
2017-10-26T09:31:02.264Z,24.23
2017-10-26T09:33:35.954Z,24.30
2017-10-26T09:36:03.385Z,23.80
2017-10-26T09:38:30.829Z,23.37
2017-10-26T09:40:58.486Z,24.93
2017-10-26T09:43:25.919Z,22.03
2017-10-26T09:45:53.349Z,20.27
2017-10-26T09:48:20.810Z,21.20
2017-10-26T09:50:48.251Z,22.77
2017-10-26T09:53:16.077Z,24.00
2017-10-26T09:55:43.542Z,23.20
2017-10-26T09:58:10.979Z,24.13
2017-10-26T10:00:38.413Z,24.40
2017-10-26T10:03:06.080Z,23.80
2017-10-26T10:05:33.515Z,22.27
2017-10-26T10:08:00.955Z,23.70
2017-10-26T10:10:28.821Z,25.30
2017-10-26T10:12:56.269Z,24.13
2017-10-26T10:15:24.092Z,23.17
2017-10-26T10:17:51.528Z,25.00
2017-10-26T10:20:18.982Z,24.87
2017-10-26T10:22:46.749Z,24.43
2017-10-26T10:25:14.184Z,24.83
2017-10-26T10:27:41.610Z,24.43
2017-10-26T10:30:09.484Z,21.27
2017-10-26T10:32:37.316Z,23.43
2017-10-26T10:35:04.749Z,21.70
2017-10-26T10:37:32.207Z,22.73
2017-10-26T10:39:59.637Z,22.47
2017-10-26T10:42:27.080Z,21.50
2017-10-26T10:44:54.566Z,22.70
2017-10-26T10:47:22.016Z,20.20
2017-10-26T10:49:49.462Z,21.10
2017-10-26T10:52:16.897Z,21.93
2017-10-26T10:54:44.669Z,20.73
2017-10-26T10:57:12.090Z,22.30
2017-10-26T10:59:45.633Z,19.27
2017-10-26T11:02:13.075Z,20.97
2017-10-26T11:04:40.547Z,18.00
2017-10-26T11:07:07.977Z,20.17
2017-10-26T11:09:35.412Z,22.67
2017-10-26T11:12:03.439Z,19.40
2017-10-26T11:14:30.873Z,20.90
2017-10-26T11:16:58.308Z,19.47
2017-10-26T11:19:25.782Z,19.20
2017-10-26T11:21:53.214Z,18.73
2017-10-26T11:24:20.641Z,20.40
2017-10-26T11:26:48.261Z,19.47
2017-10-26T11:29:15.689Z,19.20
2017-10-26T11:31:43.116Z,20.43
2017-10-26T11:34:11.066Z,21.70
2017-10-26T11:36:38.757Z,21.83
2017-10-26T11:39:06.585Z,20.63
2017-10-26T11:41:34.025Z,22.33
2017-10-26T11:44:01.458Z,20.60
2017-10-26T11:46:28.897Z,18.70
2017-10-26T11:48:56.356Z,19.00
2017-10-26T11:51:23.790Z,19.50
2017-10-26T11:53:51.758Z,20.30
2017-10-26T11:56:19.203Z,19.40
2017-10-26T11:58:47.033Z,21.50
2017-10-26T12:01:14.717Z,18.70
2017-10-26T12:03:42.273Z,19.17
2017-10-26T12:06:09.697Z,16.90
2017-10-26T12:08:37.135Z,17.50
2017-10-26T12:11:04.581Z,18.00
2017-10-26T12:13:32.013Z,16.17
2017-10-26T12:15:59.837Z,15.47
2017-10-26T12:18:28.305Z,13.63
2017-10-26T12:20:55.742Z,14.00
2017-10-26T12:23:23.169Z,13.23
2017-10-26T12:25:50.603Z,14.97
2017-10-26T12:28:18.461Z,12.73
2017-10-26T12:30:45.898Z,11.60
2017-10-26T12:33:13.333Z,12.10
2017-10-26T12:35:40.784Z,11.27
2017-10-26T12:38:08.216Z,13.13
2017-10-26T12:40:35.640Z,11.13
2017-10-26T12:43:04.145Z,11.63
2017-10-26T12:45:31.573Z,11.10
2017-10-26T12:47:59.405Z,11.70
2017-10-26T12:50:26.840Z,13.37
2017-10-26T12:52:55.234Z,9.93
2017-10-26T12:55:22.671Z,11.33
2017-10-26T12:57:50.093Z,9.07
2017-10-26T13:00:17.957Z,9.10
2017-10-26T13:02:45.780Z,9.90
2017-10-26T13:05:13.214Z,9.37
2017-10-26T13:07:40.653Z,10.20
2017-10-26T13:10:08.341Z,9.30
2017-10-26T13:12:35.782Z,10.20
2017-10-26T13:15:03.208Z,9.70
2017-10-26T13:17:30.645Z,10.43
2017-10-26T13:19:58.476Z,10.50
2017-10-26T13:22:26.000Z,10.77
2017-10-26T13:24:53.429Z,10.23
2017-10-26T13:27:21.256Z,9.90
2017-10-26T13:29:49.555Z,9.60
2017-10-26T13:32:16.992Z,10.57
2017-10-26T13:34:44.423Z,10.90
2017-10-26T13:37:11.869Z,10.50
2017-10-26T13:39:39.301Z,10.73
2017-10-26T13:42:06.734Z,9.50
2017-10-26T13:44:34.572Z,9.03
2017-10-26T13:47:02.028Z,10.17
2017-10-26T13:49:29.704Z,10.80
2017-10-26T13:51:57.263Z,10.47
2017-10-26T13:54:24.699Z,8.83
2017-10-26T13:56:52.134Z,9.47
2017-10-26T13:59:19.575Z,11.20
2017-10-26T14:01:47.021Z,10.13
2017-10-26T14:04:14.441Z,9.60
2017-10-26T14:06:42.267Z,8.53
2017-10-26T14:09:09.702Z,8.10
2017-10-26T14:11:37.132Z,9.53
2017-10-26T14:14:04.567Z,7.30
2017-10-26T14:16:32.103Z,7.30
2017-10-26T14:18:59.525Z,8.07
2017-10-26T14:21:26.958Z,7.07
2017-10-26T14:23:54.394Z,7.03
2017-10-26T14:26:22.254Z,7.37
2017-10-26T14:28:50.080Z,6.27
2017-10-26T14:31:17.504Z,5.90
2017-10-26T14:33:44.962Z,5.40
2017-10-26T14:36:12.393Z,5.13
2017-10-26T14:38:40.217Z,5.90
2017-10-26T14:41:07.671Z,5.27
2017-10-26T14:43:35.084Z,5.30
2017-10-26T14:46:02.516Z,5.70
2017-10-26T14:48:30.628Z,5.40
2017-10-26T14:50:58.066Z,6.17
2017-10-26T14:53:25.498Z,5.50
2017-10-26T14:55:53.329Z,8.00
2017-10-26T14:58:20.755Z,4.90
2017-10-26T15:00:48.202Z,4.93
2017-10-26T15:03:15.646Z,5.60
2017-10-26T15:05:43.077Z,4.60
2017-10-26T15:08:10.904Z,5.03
2017-10-26T15:10:38.525Z,5.70
2017-10-26T15:13:10.693Z,9.03
2017-10-26T15:15:38.989Z,5.80
2017-10-26T15:18:06.431Z,4.80
2017-10-26T15:20:33.865Z,5.00
2017-10-26T15:23:01.305Z,6.13
2017-10-26T15:25:28.758Z,6.10
2017-10-26T15:27:56.597Z,5.57
2017-10-26T15:30:24.034Z,5.17
2017-10-26T15:32:51.472Z,6.20
2017-10-26T15:35:18.933Z,6.13
2017-10-26T15:37:46.366Z,6.20
2017-10-26T15:40:13.794Z,7.00
2017-10-26T15:42:41.625Z,6.73
2017-10-26T15:45:09.463Z,6.40
2017-10-26T15:47:36.897Z,7.77
2017-10-26T15:50:04.345Z,5.87
2017-10-26T15:52:31.780Z,6.00
2017-10-26T15:54:59.209Z,6.23
2017-10-26T15:57:26.952Z,5.43
2017-10-26T15:59:54.380Z,5.77
2017-10-26T16:02:21.814Z,5.30
2017-10-26T16:04:49.640Z,8.70
2017-10-26T16:07:17.099Z,5.47
2017-10-26T16:09:44.533Z,5.50
2017-10-26T16:12:11.964Z,5.13
2017-10-26T16:14:39.657Z,5.87
2017-10-26T16:17:07.093Z,6.73
2017-10-26T16:19:34.528Z,5.03
2017-10-26T16:22:01.957Z,5.40
2017-10-26T16:24:29.383Z,6.27
2017-10-26T16:26:57.166Z,5.70
2017-10-26T16:29:24.589Z,7.03
2017-10-26T16:31:52.030Z,6.00
2017-10-26T16:34:19.501Z,6.30
2017-10-26T16:36:46.929Z,5.47
2017-10-26T16:39:14.352Z,4.70
2017-10-26T16:41:42.472Z,5.57
2017-10-26T16:44:09.905Z,6.47
2017-10-26T16:46:37.331Z,5.63
2017-10-26T16:49:05.168Z,5.60
2017-10-26T16:51:33.109Z,6.20
2017-10-26T16:54:00.705Z,5.80
2017-10-26T16:56:28.906Z,6.20
2017-10-26T16:58:57.739Z,5.83
2017-10-26T17:01:25.461Z,6.90
2017-10-26T17:03:52.886Z,5.57
2017-10-26T17:06:20.415Z,5.40
2017-10-26T17:08:47.852Z,6.50
2017-10-26T17:11:15.281Z,4.80
2017-10-26T17:13:42.837Z,15.57
2017-10-26T17:16:10.312Z,5.73
2017-10-26T17:18:37.744Z,5.00
2017-10-26T17:21:06.576Z,5.50
2017-10-26T17:23:34.012Z,5.27
2017-10-26T17:26:01.486Z,7.20
2017-10-26T17:28:28.933Z,6.53
2017-10-26T17:30:56.369Z,6.10
2017-10-26T17:33:23.834Z,5.70
2017-10-26T17:35:51.600Z,7.73
2017-10-26T17:38:19.038Z,6.40
2017-10-26T17:40:46.507Z,6.60
2017-10-26T17:43:14.195Z,6.10
2017-10-26T17:45:41.629Z,6.53
2017-10-26T17:48:09.063Z,6.00
2017-10-26T17:50:36.850Z,6.83
2017-10-26T17:53:04.273Z,6.60
2017-10-26T17:55:31.706Z,6.23
2017-10-26T17:57:59.546Z,5.80
2017-10-26T18:00:26.977Z,7.20
2017-10-26T18:02:54.420Z,7.57
2017-10-26T18:05:21.875Z,7.23
2017-10-26T18:07:49.309Z,6.63
2017-10-26T18:10:16.785Z,7.70
2017-10-26T18:12:44.293Z,7.67
2017-10-26T18:15:11.727Z,7.73
2017-10-26T18:17:39.195Z,10.03
2017-10-26T18:20:06.608Z,8.53
2017-10-26T18:22:34.042Z,7.70
2017-10-26T18:25:01.671Z,9.60
2017-10-26T18:27:29.101Z,7.83
2017-10-26T18:29:56.541Z,7.93
2017-10-26T18:32:25.353Z,7.67
2017-10-26T18:34:52.773Z,8.90
2017-10-26T18:37:20.237Z,9.03
2017-10-26T18:39:48.555Z,7.80
2017-10-26T18:42:16.062Z,7.70
2017-10-26T18:44:44.920Z,7.87
2017-10-26T18:47:13.674Z,8.53
2017-10-26T18:49:41.956Z,9.40
2017-10-26T18:52:09.417Z,17.37
2017-10-26T18:54:36.861Z,9.43
2017-10-26T18:57:04.322Z,7.50
2017-10-26T18:59:31.762Z,8.00
2017-10-26T19:01:59.450Z,7.50
2017-10-26T19:04:27.281Z,7.27
2017-10-26T19:06:55.458Z,7.30
2017-10-26T19:09:22.923Z,7.93
2017-10-26T19:11:50.498Z,8.60
2017-10-26T19:14:18.324Z,7.07
2017-10-26T19:16:45.757Z,6.80
2017-10-26T19:19:13.225Z,7.10
2017-10-26T19:21:40.797Z,7.63
2017-10-26T19:24:08.258Z,7.30
2017-10-26T19:26:35.693Z,6.60
2017-10-26T19:29:03.150Z,6.83
2017-10-26T19:31:30.938Z,6.47
2017-10-26T19:33:58.370Z,7.00
2017-10-26T19:36:25.845Z,7.50
2017-10-26T19:38:54.234Z,7.07
2017-10-26T19:41:21.650Z,7.40
2017-10-26T19:43:49.106Z,7.03
2017-10-26T19:46:18.884Z,5.87
2017-10-26T19:48:46.361Z,7.23
2017-10-26T19:51:13.809Z,6.40
2017-10-26T19:53:42.098Z,6.50
2017-10-26T19:56:09.547Z,5.90
2017-10-26T19:58:36.974Z,5.87
2017-10-26T20:01:04.624Z,6.13
2017-10-26T20:03:32.481Z,6.90
2017-10-26T20:05:59.889Z,6.13
2017-10-26T20:08:27.362Z,5.67
2017-10-26T20:10:54.819Z,5.93
2017-10-26T20:13:22.279Z,6.10
2017-10-26T20:15:49.781Z,6.30
2017-10-26T20:18:17.226Z,5.60
2017-10-26T20:20:44.686Z,9.10
2017-10-26T20:23:12.126Z,6.40
2017-10-26T20:25:39.973Z,5.80
2017-10-26T20:28:07.465Z,5.17
2017-10-26T20:30:34.901Z,5.20
2017-10-26T20:33:02.750Z,5.70
2017-10-26T20:35:30.253Z,6.30
2017-10-26T20:37:57.704Z,6.43
2017-10-26T20:40:25.130Z,6.03
2017-10-26T20:42:52.981Z,5.73
2017-10-26T20:45:20.422Z,5.40
2017-10-26T20:47:47.882Z,5.80
2017-10-26T20:50:21.301Z,5.50
2017-10-26T20:52:54.897Z,5.20
2017-10-26T20:58:34.230Z,6.77
2017-10-26T21:01:07.477Z,6.30
2017-10-26T21:03:40.666Z,5.50
2017-10-26T21:06:13.858Z,6.80
2017-10-26T21:08:47.094Z,6.10
2017-10-26T21:14:30.574Z,6.27
2017-10-26T21:16:58.037Z,6.27
2017-10-26T21:19:25.479Z,6.70
2017-10-26T21:21:53.314Z,5.33
2017-10-26T21:24:20.755Z,6.60
2017-10-26T21:26:48.201Z,5.97
2017-10-26T21:29:15.711Z,6.97
2017-10-26T21:31:43.185Z,6.67
2017-10-26T21:34:10.626Z,7.10
2017-10-26T21:36:38.382Z,6.53
2017-10-26T21:39:05.813Z,6.73
2017-10-26T21:41:33.245Z,6.50
2017-10-26T21:44:00.718Z,7.17
2017-10-26T21:46:28.153Z,5.73
2017-10-26T21:48:55.610Z,6.23
2017-10-26T21:51:23.114Z,4.90
2017-10-26T21:53:50.952Z,6.73
2017-10-26T21:56:18.394Z,6.03
2017-10-26T21:58:46.112Z,6.17
2017-10-26T22:01:13.566Z,6.83
2017-10-26T22:03:40.986Z,6.30
2017-10-26T22:06:09.009Z,6.50
2017-10-26T22:08:36.445Z,5.70
2017-10-26T22:11:03.896Z,6.93
2017-10-26T22:13:31.373Z,6.60
2017-10-26T22:15:58.818Z,7.50
2017-10-26T22:18:26.264Z,7.40
2017-10-26T22:20:53.744Z,5.93
2017-10-26T22:23:21.162Z,8.27
2017-10-26T22:25:48.589Z,6.20
2017-10-26T22:28:16.417Z,6.30
2017-10-26T22:30:43.865Z,5.30
2017-10-26T22:33:11.357Z,5.50
2017-10-26T22:35:38.794Z,5.87
2017-10-26T22:38:06.377Z,5.57
2017-10-26T22:40:34.196Z,6.40
2017-10-26T22:43:01.639Z,5.77
2017-10-26T22:45:29.115Z,6.03
2017-10-26T22:47:56.546Z,7.07
2017-10-26T22:50:24.968Z,5.93
2017-10-26T22:52:52.696Z,5.60
2017-10-26T22:55:20.129Z,4.80
2017-10-26T22:57:47.546Z,5.30
2017-10-26T23:00:14.993Z,4.20
2017-10-26T23:02:42.429Z,4.67
2017-10-26T23:05:09.870Z,5.23
2017-10-26T23:07:37.314Z,4.80
2017-10-26T23:10:04.748Z,4.27
2017-10-26T23:12:32.182Z,4.33
2017-10-26T23:14:59.637Z,5.07
2017-10-26T23:17:27.459Z,4.23
2017-10-26T23:19:54.881Z,4.33
2017-10-26T23:22:22.641Z,5.40
2017-10-26T23:24:50.064Z,3.87
2017-10-26T23:27:17.481Z,4.23
2017-10-26T23:29:45.029Z,3.63
2017-10-26T23:32:12.452Z,3.90
2017-10-26T23:34:39.885Z,3.67
2017-10-26T23:37:07.350Z,4.10
2017-10-26T23:39:35.165Z,5.57
2017-10-26T23:42:02.596Z,4.10
2017-10-26T23:44:30.045Z,4.27
2017-10-26T23:46:57.477Z,5.00
2017-10-26T23:49:24.927Z,4.80
2017-10-26T23:51:52.382Z,5.03
2017-10-26T23:54:20.210Z,5.20
2017-10-26T23:56:47.635Z,5.07
2017-10-26T23:59:15.079Z,5.90
